Time;durP1;ratioP1;P1;durP2;ratioP2;P2;SDS_P1;SDS_P2;PMS_P1;PMS_P2;Temp;Humidity;BMP_temperature;BMP_pressure;BME280_temperature;BME280_humidity;BME280_pressure;Samples;Min_cycle;Max_cycle;Signal;HPM_P1;HPM_P2
2021/01/13 06:01:43;;;;;;;7.13;3.73;;;2.60;98.40;;;;;;5496052;23;20058;-81
2021/01/13 06:04:11;;;;;;;6.57;3.60;;;2.50;98.70;;;;;;5016116;28;20293;-81
2021/01/13 06:06:57;;;;;;;5.70;3.20;;;2.40;98.50;;;;;;5000362;28;20134;-80
2021/01/13 06:09:25;;;;;;;7.53;3.63;;;2.40;98.60;;;;;;5000829;28;20141;-80
2021/01/13 06:11:54;;;;;;;6.38;3.33;;;2.40;98.60;;;;;;5002654;28;20058;-81
2021/01/13 06:14:25;;;;;;;6.22;3.60;;;2.20;98.80;;;;;;5004839;28;20134;-81
2021/01/13 06:16:54;;;;;;;5.60;3.35;;;2.20;98.90;;;;;;5005233;28;20057;-80
2021/01/13 06:19:22;;;;;;;6.03;3.45;;;2.20;98.90;;;;;;5007265;28;20595;-81
2021/01/13 06:22:08;;;;;;;9.02;3.83;;;2.20;99.00;;;;;;5006118;28;20050;-81
2021/01/13 06:24:37;;;;;;;6.20;3.60;;;2.20;98.90;;;;;;5005246;28;20407;-81
2021/01/13 06:27:17;;;;;;;8.07;3.67;;;2.10;99.10;;;;;;5005881;28;20206;-81
2021/01/13 06:29:50;;;;;;;6.85;3.78;;;2.20;99.20;;;;;;5003713;28;20062;-81
2021/01/13 06:32:28;;;;;;;7.95;4.30;;;2.20;99.20;;;;;;5005916;28;20057;-80
2021/01/13 06:35:14;;;;;;;7.90;4.35;;;2.20;99.00;;;;;;5076069;22;20045;-79
2021/01/13 06:37:48;;;;;;;8.90;3.90;;;2.30;99.10;;;;;;5013546;28;20054;-79
2021/01/13 06:40:18;;;;;;;7.40;3.97;;;2.30;99.00;;;;;;5012637;28;20061;-81
2021/01/13 06:42:45;;;;;;;6.20;3.83;;;2.30;99.00;;;;;;4996912;28;20530;-81
2021/01/13 06:45:15;;;;;;;6.93;4.10;;;2.20;99.00;;;;;;5030354;28;20065;-80
2021/01/13 06:47:58;;;;;;;8.98;4.05;;;2.30;99.10;;;;;;5014685;28;20066;-80
2021/01/13 06:50:37;;;;;;;9.38;4.22;;;2.00;99.00;;;;;;5014199;28;20050;-81
2021/01/13 06:53:08;;;;;;;9.55;4.15;;;2.20;99.30;;;;;;5014572;28;20047;-81
2021/01/13 06:55:37;;;;;;;6.72;4.05;;;2.30;99.30;;;;;;5015390;28;20110;-80
2021/01/13 06:58:13;;;;;;;7.90;4.00;;;2.20;99.20;;;;;;5013780;28;20076;-80
2021/01/13 07:00:40;;;;;;;11.80;5.28;;;2.20;99.30;;;;;;5013818;28;20058;-80
2021/01/13 07:03:29;;;;;;;6.90;4.20;;;2.30;99.20;;;;;;5013078;28;20046;-82
2021/01/13 07:05:57;;;;;;;11.02;4.72;;;2.20;99.40;;;;;;5014024;28;20050;-80
2021/01/13 07:08:26;;;;;;;8.90;4.38;;;2.20;99.50;;;;;;5013612;28;20070;-80
2021/01/13 07:11:04;;;;;;;8.80;4.47;;;2.20;99.60;;;;;;5012311;28;20073;-79
2021/01/13 07:13:34;;;;;;;9.25;4.60;;;2.20;99.50;;;;;;5011601;28;20072;-79
2021/01/13 07:16:02;;;;;;;8.45;4.05;;;2.20;99.60;;;;;;5012294;28;20110;-80
2021/01/13 07:18:31;;;;;;;10.20;4.78;;;2.20;99.70;;;;;;5028340;28;20054;-80
2021/01/13 07:21:07;;;;;;;8.50;4.30;;;2.30;99.60;;;;;;5012618;28;20114;-79
2021/01/13 07:23:35;;;;;;;9.05;4.68;;;2.30;99.60;;;;;;5012063;28;20041;-80
2021/01/13 07:26:04;;;;;;;8.48;4.95;;;2.30;99.50;;;;;;5012057;28;20046;-79
2021/01/13 07:28:33;;;;;;;8.70;5.47;;;2.30;99.50;;;;;;5028605;28;20109;-80
2021/01/13 07:31:02;;;;;;;14.38;5.50;;;2.10;99.70;;;;;;5011049;28;20137;-80
2021/01/13 07:33:34;;;;;;;8.20;5.22;;;2.10;99.80;;;;;;5008754;28;20110;-81
2021/01/13 07:36:02;;;;;;;9.20;5.00;;;2.20;99.70;;;;;;5011461;28;20110;-80
2021/01/13 07:38:31;;;;;;;10.35;5.03;;;2.30;99.60;;;;;;5011490;28;20061;-79
2021/01/13 07:41:03;;;;;;;10.95;5.78;;;2.20;99.50;;;;;;5012479;28;20118;-81
2021/01/13 07:44:14;;;;;;;9.30;5.03;;;2.30;99.60;;;;;;4995098;28;20055;-81
2021/01/13 07:46:55;;;;;;;9.32;5.00;;;2.30;99.50;;;;;;4994748;28;20416;-80
2021/01/13 07:49:24;;;;;;;10.18;4.53;;;2.40;99.40;;;;;;5012222;28;20129;-80
2021/01/13 07:51:53;;;;;;;9.90;4.72;;;2.40;99.30;;;;;;5012323;28;20061;-80
2021/01/13 07:54:32;;;;;;;10.05;5.13;;;2.40;99.20;;;;;;5011505;28;20050;-80
2021/01/13 07:57:01;;;;;;;9.00;5.00;;;2.40;99.20;;;;;;5010397;28;20154;-79
2021/01/13 07:59:40;;;;;;;9.88;5.03;;;2.40;99.00;;;;;;5011941;28;20117;-79
2021/01/13 08:03:12;;;;;;;9.30;5.07;;;2.50;99.00;;;;;;5010022;28;20047;-79
2021/01/13 08:06:26;;;;;;;8.63;4.65;;;2.40;99.10;;;;;;5003604;28;20046;-79
2021/01/13 08:09:16;;;;;;;9.63;5.38;;;2.40;99.10;;;;;;5012716;28;20057;-81
2021/01/13 08:12:17;;;;;;;9.15;5.10;;;2.40;99.30;;;;;;5014368;28;20057;-79
2021/01/13 08:15:44;;;;;;;10.43;4.95;;;2.40;99.30;;;;;;5014752;28;20090;-80
2021/01/13 08:19:09;;;;;;;12.23;5.20;;;2.50;99.10;;;;;;5013099;28;20046;-80
2021/01/13 08:21:44;;;;;;;9.77;5.45;;;2.40;99.10;;;;;;5015785;28;20054;-81
2021/01/13 08:24:19;;;;;;;9.07;5.38;;;2.30;99.30;;;;;;5016308;28;20129;-80
2021/01/13 08:26:47;;;;;;;12.10;5.85;;;2.30;99.30;;;;;;5014921;28;20058;-81
2021/01/13 08:29:24;;;;;;;10.00;5.68;;;2.30;99.40;;;;;;5012659;28;20085;-79
2021/01/13 08:32:04;;;;;;;11.30;5.80;;;2.30;99.30;;;;;;5014766;28;20122;-80
2021/01/13 08:34:38;;;;;;;9.25;5.15;;;2.40;99.30;;;;;;5015765;28;20105;-82
2021/01/13 08:37:24;;;;;;;9.63;5.88;;;2.30;99.40;;;;;;5016166;28;20058;-80
2021/01/13 08:40:30;;;;;;;9.27;5.13;;;2.30;99.40;;;;;;5016083;28;20054;-81
2021/01/13 08:43:33;;;;;;;11.85;5.13;;;2.40;99.30;;;;;;5015683;28;20054;-81
2021/01/13 08:46:19;;;;;;;10.48;5.20;;;2.40;99.20;;;;;;5015581;28;20046;-81
2021/01/13 08:48:53;;;;;;;11.43;5.13;;;2.50;99.10;;;;;;5014887;28;20087;-80
2021/01/13 08:51:23;;;;;;;8.77;4.93;;;2.50;99.10;;;;;;5015799;28;20050;-81
2021/01/13 08:53:51;;;;;;;10.20;4.47;;;2.50;98.90;;;;;;5015629;28;20062;-80
2021/01/13 08:56:19;;;;;;;12.75;4.55;;;2.50;98.80;;;;;;5015475;28;20115;-81
2021/01/13 08:59:06;;;;;;;10.15;4.68;;;2.60;98.70;;;;;;5016820;28;20122;-79
2021/01/13 09:01:50;;;;;;;9.40;4.97;;;2.60;98.80;;;;;;5012922;28;20074;-78
2021/01/13 09:04:25;;;;;;;9.65;4.60;;;2.60;98.60;;;;;;5016729;28;20054;-79
2021/01/13 09:07:02;;;;;;;11.25;4.53;;;2.70;98.50;;;;;;5016880;28;20103;-79
2021/01/13 09:09:34;;;;;;;9.20;4.53;;;2.80;98.10;;;;;;5017513;28;20053;-80
2021/01/13 09:12:28;;;;;;;10.02;4.57;;;2.90;97.90;;;;;;5016496;28;20082;-80
2021/01/13 09:15:14;;;;;;;10.30;4.95;;;2.70;97.60;;;;;;5015560;28;20114;-80
2021/01/13 09:17:43;;;;;;;10.20;4.38;;;2.70;98.10;;;;;;5016154;28;20113;-81
2021/01/13 09:20:22;;;;;;;11.25;5.65;;;2.80;98.00;;;;;;5015291;28;20057;-80
2021/01/13 09:22:55;;;;;;;7.53;3.97;;;2.80;98.00;;;;;;5016955;28;20125;-80
2021/01/13 09:25:28;;;;;;;10.50;4.43;;;2.90;97.60;;;;;;5015015;28;20109;-80
2021/01/13 09:28:01;;;;;;;11.82;4.50;;;2.90;97.60;;;;;;5015762;28;20061;-80
2021/01/13 09:30:53;;;;;;;8.45;4.05;;;2.90;97.60;;;;;;5015755;28;20086;-81
2021/01/13 09:33:21;;;;;;;10.18;4.40;;;3.00;97.60;;;;;;5017142;28;20086;-81
2021/01/13 09:35:49;;;;;;;7.50;3.90;;;3.10;97.30;;;;;;5016435;28;20119;-80
2021/01/13 09:38:27;;;;;;;11.50;4.35;;;3.10;97.30;;;;;;5016364;28;20114;-81
2021/01/13 09:40:59;;;;;;;8.90;4.10;;;3.20;97.00;;;;;;5016420;28;20138;-81
2021/01/13 09:43:33;;;;;;;12.63;4.30;;;3.20;96.90;;;;;;5000470;28;20038;-80
2021/01/13 09:46:03;;;;;;;7.88;3.97;;;3.30;97.20;;;;;;4999972;28;20058;-80
2021/01/13 09:48:34;;;;;;;7.25;4.22;;;3.30;96.80;;;;;;5011966;28;20057;-80
2021/01/13 09:51:05;;;;;;;10.20;4.20;;;3.30;96.90;;;;;;4999169;28;20492;-79
2021/01/13 09:53:35;;;;;;;11.15;4.20;;;3.30;96.60;;;;;;5015138;28;20078;-80
2021/01/13 09:56:07;;;;;;;9.68;3.78;;;3.30;96.50;;;;;;5013019;28;20070;-79
2021/01/13 09:58:40;;;;;;;9.07;4.05;;;3.20;96.40;;;;;;5015771;28;20077;-80
2021/01/13 10:01:14;;;;;;;9.20;4.13;;;3.10;97.00;;;;;;5015545;28;20054;-81
2021/01/13 10:03:42;;;;;;;10.15;4.50;;;3.00;96.80;;;;;;5012282;28;20055;-80
2021/01/13 10:06:17;;;;;;;7.57;3.97;;;2.90;97.10;;;;;;5014178;28;20065;-80
2021/01/13 10:08:45;;;;;;;13.40;4.40;;;2.70;97.60;;;;;;5013009;28;20038;-80
2021/01/13 10:11:15;;;;;;;7.57;4.13;;;2.80;97.50;;;;;;5010206;28;20062;-80
2021/01/13 10:13:44;;;;;;;9.10;4.95;;;2.90;97.40;;;;;;5014791;28;20061;-81
2021/01/13 10:16:13;;;;;;;9.48;3.85;;;3.00;97.50;;;;;;5015506;28;20078;-81
2021/01/13 10:18:51;;;;;;;7.97;3.58;;;3.00;97.60;;;;;;5015462;28;20068;-81
2021/01/13 10:21:19;;;;;;;8.93;4.43;;;3.10;97.50;;;;;;5014338;28;20062;-81
2021/01/13 10:23:47;;;;;;;9.00;4.35;;;3.00;97.70;;;;;;5014086;28;20042;-80
2021/01/13 10:26:15;;;;;;;7.68;3.97;;;3.00;97.70;;;;;;5014078;28;20073;-80
2021/01/13 10:28:44;;;;;;;8.55;3.63;;;3.10;97.30;;;;;;5015434;28;20093;-80
2021/01/13 10:31:24;;;;;;;7.07;3.45;;;3.20;97.00;;;;;;5016509;28;20090;-81
2021/01/13 10:33:55;;;;;;;9.50;3.30;;;3.30;96.90;;;;;;5014563;28;20054;-81
2021/01/13 10:36:44;;;;;;;8.15;3.03;;;3.40;96.80;;;;;;5013923;28;20488;-80
2021/01/13 10:39:25;;;;;;;6.50;3.10;;;3.30;96.80;;;;;;5014044;28;20055;-80
2021/01/13 10:41:55;;;;;;;8.18;3.22;;;3.30;97.00;;;;;;5014289;28;20050;-81
2021/01/13 10:44:24;;;;;;;8.85;2.92;;;3.40;96.80;;;;;;5015831;28;20074;-80
2021/01/13 10:46:57;;;;;;;8.02;3.20;;;3.40;96.90;;;;;;5016118;28;20097;-81
2021/01/13 10:49:52;;;;;;;6.82;3.40;;;3.40;96.70;;;;;;4999956;28;20045;-82
2021/01/13 10:52:26;;;;;;;9.65;3.00;;;3.50;96.80;;;;;;5013443;28;20042;-81
2021/01/13 10:54:56;;;;;;;6.10;2.90;;;3.50;96.40;;;;;;5017359;28;20042;-82
2021/01/13 10:57:30;;;;;;;8.80;2.97;;;3.50;96.80;;;;;;5017419;28;20034;-82
2021/01/13 11:00:24;;;;;;;6.35;2.80;;;3.60;96.70;;;;;;5017747;28;20077;-82
2021/01/13 11:02:54;;;;;;;9.48;2.65;;;3.70;96.30;;;;;;5017733;28;20045;-82
2021/01/13 11:05:22;;;;;;;6.30;2.50;;;3.60;96.20;;;;;;5019141;28;20030;-82
2021/01/13 11:07:52;;;;;;;6.50;2.78;;;3.70;96.40;;;;;;5019339;28;20057;-81
2021/01/13 11:10:21;;;;;;;6.30;2.50;;;3.70;96.10;;;;;;5001407;28;20065;-82
2021/01/13 11:12:50;;;;;;;6.80;2.65;;;3.80;95.80;;;;;;5017389;28;20055;-82
2021/01/13 11:15:18;;;;;;;7.95;2.72;;;3.80;95.70;;;;;;5014566;28;20079;-81
2021/01/13 11:17:47;;;;;;;7.93;2.70;;;3.70;95.50;;;;;;5015252;28;20117;-82
2021/01/13 11:20:18;;;;;;;6.15;2.70;;;3.70;95.90;;;;;;5057438;23;20031;-81
2021/01/13 11:22:47;;;;;;;7.22;2.67;;;3.60;96.00;;;;;;5014516;28;20101;-81
2021/01/13 11:25:23;;;;;;;7.90;2.70;;;3.60;95.90;;;;;;4997215;28;20046;-80
2021/01/13 11:27:58;;;;;;;6.97;2.70;;;3.70;95.60;;;;;;5015518;28;20058;-82
2021/01/13 11:30:26;;;;;;;7.53;2.53;;;3.70;95.90;;;;;;5016323;28;20027;-82
2021/01/13 11:32:55;;;;;;;7.18;2.53;;;3.90;95.50;;;;;;5018425;28;20030;-81
2021/01/13 11:35:29;;;;;;;6.72;2.47;;;4.00;95.50;;;;;;5018470;28;20066;-82
2021/01/13 11:38:42;;;;;;;8.80;2.45;;;4.20;95.10;;;;;;5018285;28;20050;-80
2021/01/13 11:41:48;;;;;;;6.93;2.22;;;4.00;94.50;;;;;;5000363;28;20060;-82
2021/01/13 11:44:37;;;;;;;6.65;2.40;;;4.10;94.90;;;;;;5014583;28;20047;-81
2021/01/13 11:47:19;;;;;;;7.10;2.40;;;4.00;94.10;;;;;;5033973;28;20127;-82
2021/01/13 11:49:55;;;;;;;7.32;2.55;;;3.80;94.50;;;;;;5022212;28;20066;-82
2021/01/13 12:44:41;;;;;;;5.00;1.70;;;4.00;92.10;;;;;;5515000;22;20062;-81
2021/01/13 12:47:09;;;;;;;5.85;1.80;;;4.10;92.40;;;;;;5001394;28;20062;-81
2021/01/13 12:49:36;;;;;;;3.97;1.60;;;4.00;92.10;;;;;;5001695;28;20098;-82
2021/01/13 12:52:03;;;;;;;5.93;1.80;;;4.00;91.80;;;;;;4997963;28;20050;-81
2021/01/13 12:54:32;;;;;;;5.40;1.60;;;4.00;91.70;;;;;;5026843;28;20061;-82
2021/01/13 13:22:55;;;;;;;5.03;1.65;;;4.10;91.10;;;;;;5151954;22;20049;-81
2021/01/13 13:25:22;;;;;;;6.38;1.70;;;4.10;90.90;;;;;;5021735;28;20084;-81
2021/01/13 13:27:49;;;;;;;4.88;1.63;;;4.10;90.60;;;;;;5021981;28;20040;-81
2021/01/13 13:30:17;;;;;;;5.13;1.70;;;4.20;91.10;;;;;;5038554;28;20060;-81
2021/01/13 13:32:44;;;;;;;6.40;1.80;;;4.20;90.60;;;;;;5039132;28;20030;-80
2021/01/13 13:35:13;;;;;;;4.75;1.75;;;4.40;90.00;;;;;;5023107;28;20037;-82
2021/01/13 14:06:11;;;;;;;5.15;1.70;;;7.40;69.60;;;;;;6006637;22;20031;-83
2021/01/13 14:08:38;;;;;;;4.80;1.48;;;8.70;63.20;;;;;;5031580;28;20084;-84
2021/01/13 14:11:09;;;;;;;4.97;1.50;;;9.10;59.60;;;;;;5033215;28;20056;-86
2021/01/13 14:13:35;;;;;;;4.68;1.40;;;8.50;57.00;;;;;;5032536;28;20057;-85
2021/01/13 14:16:25;;;;;;;4.30;1.48;;;8.00;59.30;;;;;;5051019;28;20053;-82
2021/01/13 14:18:54;;;;;;;3.83;1.30;;;7.00;62.50;;;;;;5030955;28;20053;-86
2021/01/13 14:21:21;;;;;;;4.95;1.40;;;7.90;60.70;;;;;;5031295;28;20134;-82
2021/01/13 14:23:48;;;;;;;5.20;1.50;;;9.30;55.80;;;;;;5031892;28;20049;-81
2021/01/13 14:26:19;;;;;;;3.80;1.60;;;10.60;50.70;;;;;;5031464;28;20087;-81
2021/01/13 14:28:46;;;;;;;4.68;1.60;;;10.90;49.80;;;;;;5031193;28;20045;-83
2021/01/13 14:31:13;;;;;;;4.50;1.63;;;11.30;48.00;;;;;;5031127;28;20077;-81
2021/01/13 14:33:39;;;;;;;5.88;1.80;;;11.90;47.00;;;;;;5030978;28;20680;-82
2021/01/13 14:36:08;;;;;;;6.45;1.52;;;11.80;46.70;;;;;;5031265;28;20132;-82
2021/01/13 14:38:37;;;;;;;5.80;1.85;;;11.90;46.90;;;;;;5030965;28;20133;-81
2021/01/13 14:41:03;;;;;;;6.53;1.80;;;12.60;45.40;;;;;;5031095;28;20069;-81
2021/01/13 14:43:30;;;;;;;6.50;1.90;;;13.10;43.70;;;;;;5030208;28;20050;-82
2021/01/13 14:45:56;;;;;;;3.97;1.63;;;12.70;44.00;;;;;;5030938;28;20467;-82
2021/01/13 14:48:23;;;;;;;4.85;2.05;;;12.80;44.70;;;;;;5030473;28;20152;-86
2021/01/13 14:50:49;;;;;;;5.60;1.98;;;12.30;45.30;;;;;;5030711;28;20056;-86
2021/01/13 14:53:16;;;;;;;5.53;1.98;;;11.10;47.90;;;;;;5037287;28;20093;-87
2021/01/13 14:55:44;;;;;;;4.15;1.95;;;9.50;52.20;;;;;;5051985;28;20090;-85
2021/01/13 15:03:21;;;;;;;7.68;2.80;;;6.60;65.50;;;;;;5319619;23;20052;-80
2021/01/13 15:05:50;;;;;;;5.50;2.40;;;6.00;70.00;;;;;;5046067;28;20037;-80
2021/01/13 15:08:17;;;;;;;5.38;2.38;;;5.40;75.80;;;;;;5031017;28;20053;-80
2021/01/13 15:10:45;;;;;;;8.00;2.10;;;5.00;77.10;;;;;;5027844;28;20075;-79
2021/01/13 15:13:13;;;;;;;6.68;2.42;;;5.10;79.80;;;;;;5050630;28;20060;-80
2021/01/13 15:15:40;;;;;;;7.03;2.40;;;5.10;80.60;;;;;;5065171;28;20045;-79
2021/01/13 15:18:07;;;;;;;5.32;2.22;;;5.00;80.90;;;;;;5053720;28;20053;-80
2021/01/13 15:20:40;;;;;;;7.57;2.72;;;4.90;82.30;;;;;;5058876;28;20076;-79
2021/01/13 15:23:07;;;;;;;5.47;2.40;;;4.90;82.00;;;;;;5056921;28;20054;-81
2021/01/13 15:25:35;;;;;;;8.18;2.70;;;4.80;82.90;;;;;;5057417;28;20056;-80
2021/01/13 15:28:03;;;;;;;5.18;2.15;;;4.70;83.80;;;;;;5048519;28;20471;-79
2021/01/13 15:30:33;;;;;;;7.05;2.72;;;4.60;86.90;;;;;;5072432;28;20582;-81
2021/01/13 15:32:59;;;;;;;6.35;2.72;;;4.70;84.40;;;;;;5058392;28;20045;-81
2021/01/13 15:35:28;;;;;;;6.45;2.70;;;4.60;85.60;;;;;;5058443;28;20033;-81
2021/01/13 15:37:55;;;;;;;5.18;2.30;;;4.50;85.80;;;;;;5058445;28;20049;-82
2021/01/13 15:40:24;;;;;;;4.90;2.20;;;4.50;86.70;;;;;;5060176;28;20084;-81
2021/01/13 15:42:51;;;;;;;7.13;2.60;;;4.50;86.60;;;;;;5061680;28;20050;-81
2021/01/13 15:45:20;;;;;;;5.93;2.50;;;4.70;86.70;;;;;;5061960;28;20034;-80
2021/01/13 15:47:47;;;;;;;5.35;2.60;;;4.60;86.50;;;;;;5060992;28;20037;-80
2021/01/13 15:50:15;;;;;;;7.28;2.70;;;4.50;86.70;;;;;;5060788;28;20047;-82
2021/01/13 15:52:47;;;;;;;6.32;2.85;;;4.60;86.70;;;;;;5061330;28;20049;-81
2021/01/13 15:55:16;;;;;;;7.68;3.13;;;4.40;87.50;;;;;;5060945;28;20029;-81
2021/01/13 15:57:50;;;;;;;7.07;3.03;;;4.50;87.80;;;;;;5060395;28;20049;-81
2021/01/13 16:00:23;;;;;;;6.60;2.95;;;4.50;88.00;;;;;;5058100;28;20060;-82
2021/01/13 16:05:54;;;;;;;8.20;3.33;;;4.40;88.90;;;;;;5887648;23;20424;-81
2021/01/13 16:08:21;;;;;;;7.72;3.22;;;4.40;88.80;;;;;;5053090;28;20080;-81
2021/01/13 16:10:48;;;;;;;5.35;2.95;;;4.40;89.30;;;;;;5043845;28;20042;-81
2021/01/13 16:13:21;;;;;;;8.52;3.58;;;4.40;89.30;;;;;;5059942;28;20078;-81
2021/01/13 16:15:50;;;;;;;6.70;3.15;;;4.40;89.50;;;;;;5047543;28;20049;-81
2021/01/13 16:18:17;;;;;;;7.22;3.45;;;4.40;90.00;;;;;;5049933;28;20059;-81
2021/01/13 16:20:45;;;;;;;6.68;3.25;;;4.40;90.00;;;;;;5039496;28;20057;-81
2021/01/13 16:23:14;;;;;;;7.68;3.80;;;4.30;90.00;;;;;;5068886;28;20045;-81
2021/01/13 16:25:41;;;;;;;9.05;3.72;;;4.30;90.10;;;;;;5041553;28;20136;-82
2021/01/13 16:28:17;;;;;;;7.18;3.40;;;4.40;90.10;;;;;;5045342;28;20375;-83
2021/01/13 16:30:50;;;;;;;6.65;3.25;;;4.40;90.00;;;;;;5036136;28;20064;-84
2021/01/13 16:33:18;;;;;;;8.00;3.22;;;4.50;90.00;;;;;;5041933;28;20490;-82
2021/01/13 16:35:47;;;;;;;8.73;3.13;;;4.50;90.00;;;;;;5043363;28;20045;-81
2021/01/13 16:38:14;;;;;;;7.03;3.15;;;4.50;89.90;;;;;;5041804;28;20498;-81
2021/01/13 16:40:43;;;;;;;7.78;3.15;;;4.50;89.90;;;;;;5053358;28;20041;-82
2021/01/13 16:43:19;;;;;;;8.82;3.30;;;4.50;89.90;;;;;;5027247;28;20119;-83
2021/01/13 16:45:54;;;;;;;7.47;2.80;;;4.50;90.00;;;;;;5041773;28;20479;-80
2021/01/13 16:48:22;;;;;;;6.18;3.22;;;4.50;90.10;;;;;;5037712;28;20068;-82
2021/01/13 16:51:01;;;;;;;7.18;3.10;;;4.40;90.10;;;;;;5043697;28;20140;-82
2021/01/13 16:53:28;;;;;;;7.95;3.10;;;4.40;90.30;;;;;;5068714;28;20044;-81
2021/01/13 16:55:55;;;;;;;7.05;3.08;;;4.20;90.70;;;;;;5062588;28;20056;-81
2021/01/13 16:58:24;;;;;;;5.15;2.70;;;4.20;90.80;;;;;;5055979;28;20056;-81
2021/01/13 17:00:54;;;;;;;6.20;3.15;;;4.20;90.60;;;;;;5054251;28;20055;-80
2021/01/13 17:03:27;;;;;;;6.72;2.95;;;4.20;90.60;;;;;;5060253;28;20049;-80
2021/01/13 17:05:56;;;;;;;6.55;3.00;;;4.10;90.80;;;;;;5043234;28;20482;-79
2021/01/13 17:08:23;;;;;;;6.93;3.05;;;4.10;90.90;;;;;;5066724;28;20068;-81
2021/01/13 17:10:51;;;;;;;7.75;3.22;;;4.00;91.10;;;;;;5051285;28;20084;-81
2021/01/13 17:13:21;;;;;;;7.95;3.47;;;4.00;91.20;;;;;;5062525;28;20084;-81
2021/01/13 17:16:19;;;;;;;6.03;3.30;;;3.90;91.30;;;;;;5064548;28;20055;-79
2021/01/13 17:19:01;;;;;;;6.10;3.10;;;3.90;91.30;;;;;;5062222;28;20083;-81
2021/01/13 17:21:32;;;;;;;6.63;3.25;;;3.90;91.40;;;;;;5076187;28;20075;-81
2021/01/13 17:24:00;;;;;;;6.00;3.15;;;3.90;91.40;;;;;;5068112;28;20060;-80
2021/01/13 17:26:27;;;;;;;5.90;3.60;;;3.90;91.40;;;;;;5066585;28;20086;-80
2021/01/13 17:28:55;;;;;;;6.50;3.50;;;3.90;91.40;;;;;;5072203;28;20123;-80
2021/01/13 17:31:23;;;;;;;8.27;3.72;;;3.90;91.40;;;;;;5089536;28;20048;-80
2021/01/13 17:33:50;;;;;;;7.07;3.33;;;3.90;91.30;;;;;;5078167;28;20048;-79
2021/01/13 17:36:17;;;;;;;8.13;3.50;;;3.90;91.40;;;;;;5091035;28;20048;-80
2021/01/13 17:38:46;;;;;;;6.70;3.85;;;3.90;91.50;;;;;;5087357;28;20489;-80
2021/01/13 17:41:14;;;;;;;7.00;3.47;;;3.90;91.50;;;;;;5080284;28;20063;-79
2021/01/13 17:43:43;;;;;;;7.53;3.63;;;3.80;91.60;;;;;;5080927;28;20076;-80
2021/01/13 17:46:10;;;;;;;5.53;3.03;;;3.90;91.70;;;;;;5077104;28;20132;-79
2021/01/13 17:48:40;;;;;;;7.50;3.47;;;3.90;92.00;;;;;;5073606;28;20106;-80
2021/01/13 17:51:11;;;;;;;7.28;3.33;;;4.00;92.00;;;;;;5088395;28;20092;-81
2021/01/13 17:53:38;;;;;;;7.15;3.70;;;3.90;92.10;;;;;;5058203;28;20046;-81
2021/01/13 17:56:07;;;;;;;7.45;3.40;;;3.90;92.40;;;;;;5075906;28;20053;-81
2021/01/13 18:03:49;;;;;;;7.93;3.45;;;3.90;92.70;;;;;;5233749;22;20034;-82
2021/01/13 18:14:03;;;;;;;6.50;3.53;;;3.90;93.40;;;;;;5816039;23;20030;-82
2021/01/13 18:16:30;;;;;;;7.10;3.22;;;4.00;93.20;;;;;;5037654;28;20117;-81
2021/01/13 18:18:57;;;;;;;6.57;3.88;;;4.10;93.30;;;;;;5022133;28;20037;-86
2021/01/13 18:21:24;;;;;;;7.20;3.47;;;4.10;93.40;;;;;;5037412;28;20046;-84
2021/01/13 18:23:51;;;;;;;6.90;3.10;;;4.10;93.60;;;;;;5022719;28;20137;-83
2021/01/13 18:26:18;;;;;;;6.45;3.40;;;4.10;93.70;;;;;;5001603;28;20136;-83
2021/01/13 18:28:44;;;;;;;8.20;3.67;;;4.00;93.80;;;;;;5023869;28;20079;-83
2021/01/13 18:31:11;;;;;;;5.55;3.17;;;4.10;93.90;;;;;;5044320;28;20050;-83
2021/01/13 18:33:43;;;;;;;6.63;3.63;;;4.00;94.00;;;;;;4989627;28;20084;-85
2021/01/13 18:36:12;;;;;;;7.55;3.53;;;4.20;94.10;;;;;;5025282;28;20085;-80
2021/01/13 18:38:46;;;;;;;5.65;3.08;;;4.10;94.20;;;;;;5042505;28;20096;-81
2021/01/13 19:00:44;;;;;;;6.20;3.17;;;4.20;96.20;;;;;;5008203;26;19905;-81
2021/01/13 19:11:02;;;;;;;6.50;4.07;;;4.20;97.70;;;;;;5040941;23;20052;-82
2021/01/13 20:47:22;;;;;;;4.97;2.10;;;4.10;99.90;;;;;;5415942;22;20045;-81
2021/01/13 20:49:59;;;;;;;4.25;2.10;;;4.10;99.90;;;;;;5040145;28;20041;-82
2021/01/13 20:52:28;;;;;;;4.57;2.10;;;4.30;99.90;;;;;;5039523;28;20045;-80
2021/01/13 20:54:55;;;;;;;4.53;2.20;;;4.20;99.90;;;;;;5040219;28;20045;-81
2021/01/13 21:23:20;;;;;;;3.33;1.70;;;4.10;99.90;;;;;;5760784;23;20061;-84
2021/01/13 21:25:47;;;;;;;3.80;1.70;;;4.10;99.90;;;;;;5040124;28;20048;-83
